Time;durP1;ratioP1;P1;durP2;ratioP2;P2;SDS_P1;SDS_P2;PMS_P1;PMS_P2;Temp;Humidity;BMP_temperature;BMP_pressure;BME280_temperature;BME280_humidity;BME280_pressure;Samples;Min_cycle;Max_cycle;Signal;HPM_P1;HPM_P2
2022/09/16 00:01:51;;;;;;;29.60;22.65;;;;;;;;;;754644;184;819019;-55
2022/09/16 00:04:17;;;;;;;43.83;22.57;;;;;;;;;;755231;184;920685;-55
2022/09/16 00:06:43;;;;;;;31.33;21.93;;;;;;;;;;749489;186;817676;-55
2022/09/16 00:09:08;;;;;;;33.30;21.97;;;;;;;;;;757147;185;902382;-55
2022/09/16 00:11:34;;;;;;;33.33;22.37;;;;;;;;;;749662;186;919986;-55
2022/09/16 00:14:00;;;;;;;40.03;22.83;;;;;;;;;;738911;188;918356;-55
2022/09/16 00:16:26;;;;;;;31.70;23.50;;;;;;;;;;755809;185;817282;-55
2022/09/16 00:18:55;;;;;;;35.57;22.77;;;;;;;;;;754185;183;919833;-55
2022/09/16 00:21:21;;;;;;;36.23;24.53;;;;;;;;;;756059;184;917320;-55
2022/09/16 00:23:46;;;;;;;36.05;24.35;;;;;;;;;;755594;182;941753;-55
2022/09/16 00:26:12;;;;;;;29.83;22.00;;;;;;;;;;754564;184;919385;-55
2022/09/16 00:28:38;;;;;;;38.67;25.87;;;;;;;;;;754478;182;919434;-55
2022/09/16 00:31:04;;;;;;;30.57;22.33;;;;;;;;;;746589;184;919722;-55
2022/09/16 00:33:30;;;;;;;31.70;23.47;;;;;;;;;;756865;185;916000;-55
2022/09/16 00:36:02;;;;;;;38.73;24.47;;;;;;;;;;757923;184;918131;-55
2022/09/16 00:38:28;;;;;;;36.97;23.47;;;;;;;;;;755682;184;920017;-55
2022/09/16 00:40:53;;;;;;;36.30;21.90;;;;;;;;;;752235;184;916431;-54
2022/09/16 00:43:19;;;;;;;33.20;23.63;;;;;;;;;;753619;184;808234;-55
2022/09/16 00:45:45;;;;;;;33.70;21.50;;;;;;;;;;750740;185;918897;-55
2022/09/16 00:48:11;;;;;;;35.80;23.03;;;;;;;;;;751230;185;921813;-55
2022/09/16 00:50:47;;;;;;;32.43;23.13;;;;;;;;;;757605;185;920091;-54
2022/09/16 00:53:12;;;;;;;33.27;23.20;;;;;;;;;;758974;185;919601;-55
2022/09/16 00:55:37;;;;;;;37.03;23.20;;;;;;;;;;751788;184;921522;-55
2022/09/16 00:58:05;;;;;;;34.70;23.67;;;;;;;;;;750005;185;919759;-55
2022/09/16 01:00:31;;;;;;;32.33;23.27;;;;;;;;;;764062;182;819194;-55
2022/09/16 01:02:58;;;;;;;36.10;22.87;;;;;;;;;;755341;183;815375;-55
2022/09/16 01:05:25;;;;;;;38.00;23.87;;;;;;;;;;757839;181;919971;-55
2022/09/16 01:07:49;;;;;;;43.77;25.27;;;;;;;;;;757240;184;818375;-55
2022/09/16 01:10:15;;;;;;;33.73;24.03;;;;;;;;;;753292;182;816731;-54
2022/09/16 01:12:41;;;;;;;36.80;24.90;;;;;;;;;;760658;184;919895;-55
2022/09/16 01:15:07;;;;;;;36.10;25.17;;;;;;;;;;753824;182;919001;-55
2022/09/16 01:17:39;;;;;;;40.13;23.73;;;;;;;;;;757992;184;919861;-55
2022/09/16 01:20:20;;;;;;;35.87;24.60;;;;;;;;;;751367;181;919016;-55
2022/09/16 01:22:50;;;;;;;44.80;23.47;;;;;;;;;;753765;181;893483;-56
2022/09/16 01:25:30;;;;;;;36.00;24.47;;;;;;;;;;755462;185;918892;-56
2022/09/16 01:28:00;;;;;;;40.23;25.80;;;;;;;;;;746849;185;918056;-56
2022/09/16 01:30:30;;;;;;;40.70;25.57;;;;;;;;;;754708;185;919769;-55
2022/09/16 01:32:57;;;;;;;42.30;25.40;;;;;;;;;;756796;185;919502;-55
2022/09/16 01:35:29;;;;;;;41.83;24.67;;;;;;;;;;751704;185;917988;-55
2022/09/16 01:37:57;;;;;;;41.60;25.17;;;;;;;;;;752617;184;1022127;-55
2022/09/16 01:40:27;;;;;;;38.87;24.37;;;;;;;;;;748008;185;919829;-55
2022/09/16 01:43:06;;;;;;;40.67;25.60;;;;;;;;;;752385;185;919412;-56
2022/09/16 01:45:35;;;;;;;40.27;24.20;;;;;;;;;;753963;185;919943;-55
2022/09/16 01:48:11;;;;;;;40.53;23.43;;;;;;;;;;752860;184;822301;-56
2022/09/16 01:50:52;;;;;;;36.83;25.27;;;;;;;;;;751231;185;922382;-55
2022/09/16 01:53:18;;;;;;;37.00;24.23;;;;;;;;;;748271;185;919575;-56
2022/09/16 01:55:48;;;;;;;39.83;23.80;;;;;;;;;;751390;185;919773;-56
2022/09/16 01:58:17;;;;;;;33.10;22.70;;;;;;;;;;759528;185;821032;-55
2022/09/16 02:00:43;;;;;;;41.50;22.90;;;;;;;;;;757183;184;818679;-55
2022/09/16 02:03:09;;;;;;;46.08;23.17;;;;;;;;;;753300;185;919502;-55
2022/09/16 02:05:35;;;;;;;35.08;23.55;;;;;;;;;;751375;185;919496;-56
2022/09/16 02:08:00;;;;;;;35.20;22.40;;;;;;;;;;766030;182;812414;-56
2022/09/16 02:10:28;;;;;;;31.30;21.07;;;;;;;;;;756277;183;919870;-55
2022/09/16 02:12:54;;;;;;;35.13;20.40;;;;;;;;;;749779;183;900729;-56
2022/09/16 02:15:21;;;;;;;32.33;19.50;;;;;;;;;;759220;185;919843;-56
2022/09/16 02:17:46;;;;;;;26.20;19.20;;;;;;;;;;753179;185;918758;-59
2022/09/16 02:20:11;;;;;;;30.00;19.63;;;;;;;;;;754081;184;919505;-56
2022/09/16 02:22:37;;;;;;;27.37;19.40;;;;;;;;;;756928;184;918993;-56
2022/09/16 02:25:04;;;;;;;32.50;19.00;;;;;;;;;;750469;184;933473;-56
2022/09/16 02:27:30;;;;;;;26.30;16.17;;;;;;;;;;754023;184;920058;-56
2022/09/16 02:29:55;;;;;;;27.70;19.80;;;;;;;;;;749997;185;918322;-56
2022/09/16 02:32:21;;;;;;;25.57;18.60;;;;;;;;;;756610;185;816741;-56
2022/09/16 02:34:47;;;;;;;28.53;19.73;;;;;;;;;;749475;184;919655;-56
2022/09/16 02:37:13;;;;;;;22.97;16.20;;;;;;;;;;751921;185;919885;-56
2022/09/16 02:39:39;;;;;;;23.00;16.70;;;;;;;;;;752321;185;919847;-55
2022/09/16 02:42:05;;;;;;;25.50;17.50;;;;;;;;;;752116;184;922138;-56
2022/09/16 02:44:33;;;;;;;28.97;17.97;;;;;;;;;;755956;184;928354;-56
2022/09/16 02:46:57;;;;;;;24.07;17.10;;;;;;;;;;757828;181;919217;-56
2022/09/16 02:49:23;;;;;;;23.83;16.90;;;;;;;;;;751886;185;817915;-56
2022/09/16 02:51:49;;;;;;;18.13;15.43;;;;;;;;;;751095;185;918292;-55
2022/09/16 02:54:21;;;;;;;26.30;17.07;;;;;;;;;;754486;184;815575;-55
2022/09/16 02:56:47;;;;;;;25.53;16.50;;;;;;;;;;757669;185;917977;-56
2022/09/16 02:59:13;;;;;;;25.17;16.70;;;;;;;;;;748318;180;921673;-56
2022/09/16 03:01:40;;;;;;;26.13;17.77;;;;;;;;;;752464;183;919451;-56
2022/09/16 03:04:05;;;;;;;25.73;16.57;;;;;;;;;;755436;185;912973;-55
2022/09/16 03:06:34;;;;;;;30.73;16.10;;;;;;;;;;754755;184;918125;-56
2022/09/16 03:08:56;;;;;;;31.03;20.30;;;;;;;;;;751755;184;918452;-56
2022/09/16 03:11:25;;;;;;;29.10;17.10;;;;;;;;;;756992;184;919020;-56
2022/09/16 03:13:53;;;;;;;23.90;16.80;;;;;;;;;;751947;185;916668;-56
2022/09/16 03:16:35;;;;;;;20.73;16.67;;;;;;;;;;749363;185;920221;-56
2022/09/16 03:19:11;;;;;;;22.67;15.27;;;;;;;;;;754795;184;919629;-55
2022/09/16 03:21:38;;;;;;;28.70;17.07;;;;;;;;;;746978;184;919808;-56
2022/09/16 03:24:05;;;;;;;23.85;15.93;;;;;;;;;;757747;182;920459;-56
2022/09/16 03:26:32;;;;;;;20.60;15.77;;;;;;;;;;761588;184;919127;-55
2022/09/16 03:29:01;;;;;;;20.77;14.83;;;;;;;;;;748165;184;1403770;-55
2022/09/16 03:31:28;;;;;;;22.13;14.30;;;;;;;;;;756218;184;919500;-56
2022/09/16 03:33:55;;;;;;;24.33;14.23;;;;;;;;;;759729;184;919670;-56
2022/09/16 03:36:21;;;;;;;23.80;15.20;;;;;;;;;;760362;184;819170;-56
2022/09/16 03:38:47;;;;;;;20.87;14.40;;;;;;;;;;760596;184;918726;-55
2022/09/16 03:41:12;;;;;;;36.13;15.23;;;;;;;;;;750602;185;815238;-56
2022/09/16 03:43:39;;;;;;;22.37;15.47;;;;;;;;;;756303;185;813193;-56
2022/09/16 03:46:04;;;;;;;19.92;13.93;;;;;;;;;;756459;184;919277;-57
2022/09/16 03:48:30;;;;;;;20.40;13.60;;;;;;;;;;757938;182;932987;-56
2022/09/16 03:50:56;;;;;;;26.53;12.43;;;;;;;;;;756345;184;716007;-55
2022/09/16 03:53:22;;;;;;;19.53;13.70;;;;;;;;;;756320;184;918462;-56
2022/09/16 03:55:48;;;;;;;20.73;13.30;;;;;;;;;;755150;185;915294;-56
2022/09/16 03:58:14;;;;;;;23.48;16.05;;;;;;;;;;756492;184;873436;-56
2022/09/16 04:00:40;;;;;;;20.37;14.13;;;;;;;;;;767137;181;628777;-56
2022/09/16 04:03:06;;;;;;;18.70;13.40;;;;;;;;;;752070;185;630108;-56
2022/09/16 04:05:32;;;;;;;25.27;15.90;;;;;;;;;;745989;185;926417;-56
2022/09/16 04:07:57;;;;;;;18.90;14.07;;;;;;;;;;756333;185;919054;-56
2022/09/16 04:10:23;;;;;;;22.57;16.33;;;;;;;;;;754679;184;919947;-57
2022/09/16 04:12:50;;;;;;;29.40;17.43;;;;;;;;;;752928;184;919811;-56
2022/09/16 04:15:15;;;;;;;18.80;15.13;;;;;;;;;;757117;184;918790;-56
2022/09/16 04:17:41;;;;;;;22.33;14.83;;;;;;;;;;757759;184;918993;-56
2022/09/16 04:20:07;;;;;;;19.10;14.00;;;;;;;;;;752155;184;921534;-56
2022/09/16 04:22:33;;;;;;;23.43;16.43;;;;;;;;;;759231;180;920418;-56
2022/09/16 04:24:59;;;;;;;22.80;14.93;;;;;;;;;;753577;182;921506;-56
2022/09/16 04:27:25;;;;;;;22.60;14.07;;;;;;;;;;750911;185;922680;-55
2022/09/16 04:29:51;;;;;;;20.77;14.40;;;;;;;;;;758437;184;919607;-56
2022/09/16 04:32:16;;;;;;;21.10;12.50;;;;;;;;;;757224;184;915623;-56
2022/09/16 04:34:42;;;;;;;21.50;15.27;;;;;;;;;;752754;184;817463;-56
2022/09/16 04:37:08;;;;;;;21.27;13.00;;;;;;;;;;755245;182;918989;-56
2022/09/16 04:39:34;;;;;;;18.23;13.13;;;;;;;;;;760761;184;919719;-56
2022/09/16 04:42:00;;;;;;;24.50;14.07;;;;;;;;;;757582;184;924342;-56
2022/09/16 04:44:26;;;;;;;17.37;13.87;;;;;;;;;;755190;183;918685;-56
2022/09/16 04:46:51;;;;;;;24.63;15.60;;;;;;;;;;756608;184;916233;-56
2022/09/16 04:49:17;;;;;;;27.80;18.73;;;;;;;;;;756192;184;916292;-56
2022/09/16 04:51:43;;;;;;;26.42;18.20;;;;;;;;;;756027;184;915072;-56
2022/09/16 04:54:10;;;;;;;43.10;18.87;;;;;;;;;;747202;184;920750;-56
2022/09/16 04:56:35;;;;;;;27.67;17.77;;;;;;;;;;748942;184;817633;-56
2022/09/16 04:59:01;;;;;;;40.37;19.17;;;;;;;;;;748041;184;919212;-56
2022/09/16 05:01:27;;;;;;;32.33;19.13;;;;;;;;;;752905;184;920040;-56
2022/09/16 05:03:52;;;;;;;29.97;18.93;;;;;;;;;;758115;185;803485;-57
2022/09/16 05:06:18;;;;;;;30.40;18.87;;;;;;;;;;755969;184;897858;-55
2022/09/16 05:08:44;;;;;;;28.42;19.75;;;;;;;;;;755345;184;918596;-56
2022/09/16 05:11:11;;;;;;;33.10;17.03;;;;;;;;;;760674;184;807914;-56
2022/09/16 05:13:36;;;;;;;25.73;17.13;;;;;;;;;;751282;183;918095;-56
2022/09/16 05:16:03;;;;;;;33.40;20.23;;;;;;;;;;755661;183;917822;-56
2022/09/16 05:18:29;;;;;;;41.13;21.20;;;;;;;;;;755761;184;919319;-56
2022/09/16 05:20:55;;;;;;;51.00;21.40;;;;;;;;;;749796;185;918282;-56
2022/09/16 05:23:22;;;;;;;39.03;20.40;;;;;;;;;;751859;184;920169;-56
2022/09/16 05:25:47;;;;;;;34.70;19.87;;;;;;;;;;753045;182;918785;-56
2022/09/16 05:28:12;;;;;;;45.40;22.60;;;;;;;;;;754422;185;920150;-55
2022/09/16 05:30:38;;;;;;;42.47;22.40;;;;;;;;;;752369;183;919735;-56
2022/09/16 05:33:04;;;;;;;43.70;23.20;;;;;;;;;;754122;182;814864;-56
2022/09/16 05:35:30;;;;;;;52.30;24.03;;;;;;;;;;753423;185;917257;-56
2022/09/16 05:37:56;;;;;;;47.37;22.67;;;;;;;;;;739020;188;898229;-56
2022/09/16 05:40:22;;;;;;;44.22;23.65;;;;;;;;;;754291;184;914537;-56
2022/09/16 05:42:48;;;;;;;53.07;23.63;;;;;;;;;;755471;185;922674;-55
2022/09/16 05:45:13;;;;;;;47.13;23.60;;;;;;;;;;755212;184;830006;-55
2022/09/16 05:47:39;;;;;;;48.27;23.93;;;;;;;;;;749489;185;919064;-56
2022/09/16 05:50:05;;;;;;;48.33;25.07;;;;;;;;;;754097;184;921417;-56
2022/09/16 05:52:31;;;;;;;46.27;22.93;;;;;;;;;;757167;184;911314;-56
2022/09/16 05:54:57;;;;;;;48.53;23.43;;;;;;;;;;753804;184;813018;-56
2022/09/16 05:57:23;;;;;;;35.95;21.42;;;;;;;;;;757542;184;919120;-56
2022/09/16 05:59:49;;;;;;;44.73;20.60;;;;;;;;;;754889;184;918987;-56
2022/09/16 06:02:15;;;;;;;40.20;21.90;;;;;;;;;;735364;187;917749;-55
2022/09/16 06:04:41;;;;;;;43.07;20.93;;;;;;;;;;750053;185;851814;-55
2022/09/16 06:07:07;;;;;;;38.97;18.60;;;;;;;;;;759355;184;917520;-56
2022/09/16 06:09:32;;;;;;;40.15;17.90;;;;;;;;;;748572;185;916574;-56
2022/09/16 06:11:58;;;;;;;32.70;16.73;;;;;;;;;;754326;184;915854;-56
2022/09/16 06:14:24;;;;;;;37.43;17.77;;;;;;;;;;753965;184;916455;-55
2022/09/16 06:16:50;;;;;;;28.33;17.53;;;;;;;;;;753850;185;918031;-55
2022/09/16 06:19:16;;;;;;;32.57;18.90;;;;;;;;;;749974;183;919654;-56
2022/09/16 06:21:42;;;;;;;32.20;17.70;;;;;;;;;;754419;184;918514;-56
2022/09/16 06:24:07;;;;;;;31.00;16.97;;;;;;;;;;753034;184;920244;-56
2022/09/16 06:26:33;;;;;;;37.17;16.90;;;;;;;;;;750691;184;919461;-56
2022/09/16 06:28:59;;;;;;;29.33;17.40;;;;;;;;;;752891;184;921227;-56
2022/09/16 06:31:25;;;;;;;31.70;15.33;;;;;;;;;;753768;185;818521;-56
2022/09/16 06:33:51;;;;;;;25.60;14.23;;;;;;;;;;752688;180;816210;-56
2022/09/16 06:36:19;;;;;;;23.27;12.87;;;;;;;;;;753030;184;919892;-56
2022/09/16 06:38:45;;;;;;;25.33;14.30;;;;;;;;;;748316;185;918972;-56
2022/09/16 06:41:11;;;;;;;23.87;13.73;;;;;;;;;;760482;184;918585;-56
2022/09/16 06:43:37;;;;;;;23.40;14.30;;;;;;;;;;751314;182;816205;-57
2022/09/16 06:46:03;;;;;;;20.88;13.05;;;;;;;;;;753884;184;918559;-56
2022/09/16 06:48:29;;;;;;;24.30;14.00;;;;;;;;;;759494;184;822252;-57
2022/09/16 06:50:57;;;;;;;18.50;12.93;;;;;;;;;;752620;185;908673;-56
2022/09/16 06:53:22;;;;;;;19.63;11.17;;;;;;;;;;754216;185;817494;-56
2022/09/16 06:55:48;;;;;;;19.97;11.53;;;;;;;;;;754783;185;919712;-56
2022/09/16 06:58:14;;;;;;;13.27;9.47;;;;;;;;;;749857;185;920533;-56
2022/09/16 07:00:40;;;;;;;17.80;9.30;;;;;;;;;;755887;180;669621;-56
2022/09/16 07:03:06;;;;;;;14.43;9.67;;;;;;;;;;749907;184;919574;-56
2022/09/16 07:05:33;;;;;;;14.53;8.37;;;;;;;;;;756604;184;816589;-56
2022/09/16 07:07:58;;;;;;;18.30;8.13;;;;;;;;;;755908;184;918863;-56
2022/09/16 07:10:24;;;;;;;12.67;8.40;;;;;;;;;;753496;184;918831;-56
2022/09/16 07:12:50;;;;;;;12.23;7.93;;;;;;;;;;753671;184;920072;-56
2022/09/16 07:15:15;;;;;;;17.47;9.73;;;;;;;;;;756312;183;817993;-56
2022/09/16 07:17:41;;;;;;;12.07;7.90;;;;;;;;;;752222;183;944609;-55
2022/09/16 07:20:08;;;;;;;11.85;8.35;;;;;;;;;;756450;185;918738;-56
2022/09/16 07:22:33;;;;;;;16.30;7.67;;;;;;;;;;755883;184;920748;-56
2022/09/16 07:24:59;;;;;;;11.53;6.80;;;;;;;;;;755562;184;921184;-56
2022/09/16 07:27:25;;;;;;;10.53;5.93;;;;;;;;;;754189;185;818719;-56
2022/09/16 07:29:52;;;;;;;10.30;7.22;;;;;;;;;;761291;184;817960;-56
2022/09/16 07:32:17;;;;;;;13.10;7.07;;;;;;;;;;756736;184;920394;-56
2022/09/16 07:34:43;;;;;;;10.60;8.33;;;;;;;;;;748444;184;916354;-56
2022/09/16 07:37:09;;;;;;;14.10;6.23;;;;;;;;;;758232;184;915572;-57
2022/09/16 07:39:34;;;;;;;10.97;5.70;;;;;;;;;;753527;184;918960;-56
2022/09/16 07:42:02;;;;;;;11.23;7.07;;;;;;;;;;750149;184;924373;-56
2022/09/16 07:44:26;;;;;;;9.83;8.60;;;;;;;;;;753475;185;920508;-56
2022/09/16 07:46:52;;;;;;;8.70;5.50;;;;;;;;;;751289;185;891065;-56
2022/09/16 07:49:18;;;;;;;12.93;7.05;;;;;;;;;;751738;185;919385;-56
2022/09/16 07:51:44;;;;;;;10.83;5.97;;;;;;;;;;754394;184;951750;-56
2022/09/16 07:54:09;;;;;;;9.63;7.13;;;;;;;;;;763574;181;922375;-56
2022/09/16 07:56:35;;;;;;;9.70;5.83;;;;;;;;;;750560;184;919486;-56
2022/09/16 07:59:01;;;;;;;8.47;5.53;;;;;;;;;;752099;184;919209;-56
2022/09/16 08:01:27;;;;;;;7.73;5.60;;;;;;;;;;758501;185;617241;-56
2022/09/16 08:03:53;;;;;;;7.23;5.00;;;;;;;;;;755710;184;714495;-56
2022/09/16 08:06:19;;;;;;;10.33;5.33;;;;;;;;;;752318;184;925059;-56
2022/09/16 08:08:44;;;;;;;7.33;4.90;;;;;;;;;;756811;185;917869;-55
2022/09/16 08:11:11;;;;;;;10.33;6.20;;;;;;;;;;750357;184;918829;-55
2022/09/16 08:13:36;;;;;;;7.87;4.40;;;;;;;;;;757985;183;918695;-56
2022/09/16 08:16:02;;;;;;;11.20;5.30;;;;;;;;;;758590;183;817755;-56
2022/09/16 08:18:28;;;;;;;6.93;5.03;;;;;;;;;;749714;184;919687;-55
2022/09/16 08:20:54;;;;;;;10.43;5.27;;;;;;;;;;757725;184;885128;-55
2022/09/16 08:23:20;;;;;;;7.20;4.50;;;;;;;;;;752923;184;916347;-56
2022/09/16 08:25:46;;;;;;;9.00;5.67;;;;;;;;;;758134;185;620722;-56
2022/09/16 08:28:12;;;;;;;9.20;5.10;;;;;;;;;;741802;187;919165;-56
2022/09/16 08:30:38;;;;;;;9.07;5.17;;;;;;;;;;746041;185;918916;-56
2022/09/16 08:33:04;;;;;;;10.70;4.70;;;;;;;;;;757459;185;815401;-55
2022/09/16 08:35:30;;;;;;;6.53;4.13;;;;;;;;;;756487;184;920193;-55
2022/09/16 08:37:56;;;;;;;8.70;4.77;;;;;;;;;;751782;185;817701;-56
2022/09/16 08:40:22;;;;;;;8.03;5.17;;;;;;;;;;757922;185;817466;-56
2022/09/16 08:43:04;;;;;;;6.10;4.97;;;;;;;;;;752908;185;932128;-55
2022/09/16 08:45:50;;;;;;;7.90;4.20;;;;;;;;;;756320;184;918902;-57
2022/09/16 08:48:16;;;;;;;7.40;4.20;;;;;;;;;;755843;185;919673;-56
2022/09/16 08:50:42;;;;;;;7.93;3.80;;;;;;;;;;749772;185;919886;-56
2022/09/16 08:53:10;;;;;;;6.85;3.62;;;;;;;;;;751891;185;919073;-55
2022/09/16 08:55:38;;;;;;;7.73;4.10;;;;;;;;;;752885;185;919412;-55
2022/09/16 08:58:06;;;;;;;6.40;3.83;;;;;;;;;;742655;187;926487;-56
2022/09/16 09:00:31;;;;;;;6.40;3.93;;;;;;;;;;748830;186;884598;-56
2022/09/16 09:03:00;;;;;;;5.87;3.87;;;;;;;;;;748869;186;846463;-56
2022/09/16 09:05:29;;;;;;;6.25;3.97;;;;;;;;;;752332;186;919721;-56
2022/09/16 09:07:56;;;;;;;11.93;5.30;;;;;;;;;;748880;185;939359;-56
2022/09/16 09:10:25;;;;;;;5.47;3.73;;;;;;;;;;753994;184;918970;-56
2022/09/16 09:12:51;;;;;;;7.67;4.10;;;;;;;;;;751707;184;920863;-56
2022/09/16 09:15:29;;;;;;;5.30;3.10;;;;;;;;;;756743;185;919809;-55
2022/09/16 09:17:55;;;;;;;8.57;3.90;;;;;;;;;;750669;184;633587;-56
2022/09/16 09:20:37;;;;;;;6.40;4.07;;;;;;;;;;754266;185;880259;-55
2022/09/16 09:23:20;;;;;;;8.70;5.47;;;;;;;;;;754228;180;927231;-56
2022/09/16 09:25:49;;;;;;;6.63;3.63;;;;;;;;;;752563;184;917188;-55
2022/09/16 09:28:32;;;;;;;9.13;4.30;;;;;;;;;;751887;184;920557;-55
2022/09/16 09:30:59;;;;;;;5.70;4.60;;;;;;;;;;756091;184;916787;-55
2022/09/16 09:33:25;;;;;;;5.27;3.30;;;;;;;;;;754582;184;820483;-55
2022/09/16 09:35:55;;;;;;;5.13;4.40;;;;;;;;;;757233;184;918966;-55
2022/09/16 09:38:37;;;;;;;6.10;3.70;;;;;;;;;;748862;184;816181;-58
2022/09/16 09:41:12;;;;;;;3.93;3.27;;;;;;;;;;753817;184;857274;-56
2022/09/16 09:43:37;;;;;;;6.33;3.93;;;;;;;;;;751489;184;919054;-55
2022/09/16 09:46:18;;;;;;;11.73;4.20;;;;;;;;;;759155;184;996663;-56
2022/09/16 09:48:50;;;;;;;7.00;3.80;;;;;;;;;;765120;183;919803;-55
2022/09/16 09:51:20;;;;;;;7.93;3.90;;;;;;;;;;754496;184;917794;-56
2022/09/16 09:53:46;;;;;;;5.30;3.50;;;;;;;;;;749763;185;912162;-56
2022/09/16 09:56:12;;;;;;;4.25;2.55;;;;;;;;;;755410;184;914712;-56
2022/09/16 09:58:38;;;;;;;5.75;3.30;;;;;;;;;;756038;185;916183;-55
2022/09/16 10:01:04;;;;;;;4.90;3.60;;;;;;;;;;755479;184;919309;-56
2022/09/16 10:03:30;;;;;;;6.03;3.63;;;;;;;;;;750426;185;918834;-56
2022/09/16 10:05:56;;;;;;;5.40;2.80;;;;;;;;;;757175;184;919339;-56
2022/09/16 10:08:26;;;;;;;5.70;2.90;;;;;;;;;;750610;184;920230;-56
2022/09/16 10:10:52;;;;;;;6.40;2.90;;;;;;;;;;755708;184;917263;-55
2022/09/16 10:13:18;;;;;;;4.77;2.97;;;;;;;;;;755930;184;917773;-56
2022/09/16 10:15:44;;;;;;;4.80;2.93;;;;;;;;;;755757;185;917255;-55
2022/09/16 10:18:13;;;;;;;4.10;3.03;;;;;;;;;;749946;185;942719;-55
2022/09/16 10:20:39;;;;;;;7.90;3.40;;;;;;;;;;755109;184;920186;-56
2022/09/16 10:23:14;;;;;;;12.27;3.90;;;;;;;;;;755425;181;936096;-55
2022/09/16 10:25:39;;;;;;;4.30;3.10;;;;;;;;;;754315;185;918944;-55
2022/09/16 10:28:05;;;;;;;7.03;3.47;;;;;;;;;;745672;185;919096;-55
2022/09/16 10:30:32;;;;;;;7.47;3.37;;;;;;;;;;752403;184;920106;-55
2022/09/16 10:33:05;;;;;;;4.87;3.30;;;;;;;;;;757544;182;919172;-56
2022/09/16 10:35:31;;;;;;;13.17;3.77;;;;;;;;;;761834;183;917024;-55
2022/09/16 10:37:57;;;;;;;3.90;3.10;;;;;;;;;;750697;184;918196;-55
2022/09/16 10:40:23;;;;;;;4.27;2.80;;;;;;;;;;757081;184;920056;-56
2022/09/16 10:42:49;;;;;;;8.10;3.67;;;;;;;;;;760292;184;918544;-56
2022/09/16 10:45:15;;;;;;;5.43;2.90;;;;;;;;;;750841;184;919974;-55
2022/09/16 10:47:41;;;;;;;4.27;3.50;;;;;;;;;;758233;182;920102;-53
2022/09/16 10:50:07;;;;;;;4.87;3.27;;;;;;;;;;754468;184;921433;-55
2022/09/16 10:52:39;;;;;;;5.60;3.50;;;;;;;;;;726538;188;922590;-55
2022/09/16 10:55:09;;;;;;;3.57;3.03;;;;;;;;;;753689;184;920175;-55
2022/09/16 10:57:39;;;;;;;7.87;3.77;;;;;;;;;;756092;184;818270;-55
2022/09/16 11:00:07;;;;;;;5.20;3.97;;;;;;;;;;754653;185;820284;-55
2022/09/16 11:02:35;;;;;;;5.43;3.70;;;;;;;;;;756997;184;920434;-55
2022/09/16 11:05:05;;;;;;;6.87;3.07;;;;;;;;;;753459;185;818681;-55
2022/09/16 11:07:32;;;;;;;4.80;3.27;;;;;;;;;;752823;183;819702;-55
2022/09/16 11:10:12;;;;;;;4.60;2.60;;;;;;;;;;759202;182;921582;-56
2022/09/16 11:12:44;;;;;;;4.53;3.20;;;;;;;;;;754272;185;764735;-55
2022/09/16 11:15:15;;;;;;;4.23;3.70;;;;;;;;;;756236;184;916464;-55
2022/09/16 11:17:59;;;;;;;8.33;4.13;;;;;;;;;;754773;184;881630;-56
2022/09/16 11:20:30;;;;;;;6.87;4.13;;;;;;;;;;759956;182;915396;-55
2022/09/16 11:23:11;;;;;;;4.43;3.27;;;;;;;;;;749093;185;920045;-55
2022/09/16 11:25:39;;;;;;;8.37;3.70;;;;;;;;;;749642;181;914434;-56
2022/09/16 11:28:25;;;;;;;8.27;3.80;;;;;;;;;;753010;184;919294;-56
2022/09/16 11:30:54;;;;;;;9.33;3.90;;;;;;;;;;741413;184;918436;-56
2022/09/16 11:33:21;;;;;;;6.57;4.30;;;;;;;;;;751387;185;917427;-56
2022/09/16 11:36:04;;;;;;;6.80;4.33;;;;;;;;;;746753;184;919812;-56
2022/09/16 11:38:37;;;;;;;6.13;3.30;;;;;;;;;;748328;185;921200;-56
2022/09/16 11:40:56;;;;;;;4.90;3.27;;;;;;;;;;754917;182;919533;-56
2022/09/16 11:43:24;;;;;;;5.53;3.40;;;;;;;;;;754147;185;620596;-56
2022/09/16 11:45:50;;;;;;;8.07;4.37;;;;;;;;;;761134;184;618505;-57
2022/09/16 11:48:20;;;;;;;8.10;4.63;;;;;;;;;;760549;184;635936;-56
2022/09/16 11:50:46;;;;;;;6.50;4.13;;;;;;;;;;756222;184;917187;-56
2022/09/16 11:53:11;;;;;;;8.80;4.00;;;;;;;;;;754711;184;817911;-56
2022/09/16 11:55:52;;;;;;;14.40;3.77;;;;;;;;;;752283;184;904290;-56
2022/09/16 11:58:18;;;;;;;6.37;3.87;;;;;;;;;;754817;182;918646;-55
2022/09/16 12:00:44;;;;;;;5.40;4.03;;;;;;;;;;754475;184;892748;-56
2022/09/16 12:03:11;;;;;;;7.33;4.07;;;;;;;;;;753521;184;916722;-56
2022/09/16 12:05:41;;;;;;;6.83;4.00;;;;;;;;;;747553;184;1586243;-55
2022/09/16 12:08:23;;;;;;;10.20;3.70;;;;;;;;;;756179;183;920280;-56
2022/09/16 12:10:49;;;;;;;8.07;4.30;;;;;;;;;;749732;184;919366;-56
2022/09/16 12:13:16;;;;;;;7.37;3.97;;;;;;;;;;753516;184;895406;-56
2022/09/16 12:15:48;;;;;;;9.30;4.77;;;;;;;;;;753620;185;921183;-55
2022/09/16 12:18:15;;;;;;;6.77;3.73;;;;;;;;;;756643;183;918622;-56
2022/09/16 12:20:41;;;;;;;6.30;4.07;;;;;;;;;;754838;184;858865;-56
2022/09/16 12:23:09;;;;;;;5.47;4.10;;;;;;;;;;747940;185;917325;-56
2022/09/16 12:25:54;;;;;;;5.00;3.37;;;;;;;;;;759803;184;924822;-56
2022/09/16 12:28:20;;;;;;;13.87;3.83;;;;;;;;;;755174;185;815831;-55
2022/09/16 12:30:46;;;;;;;6.23;4.37;;;;;;;;;;748632;185;916309;-56
2022/09/16 12:33:16;;;;;;;8.52;3.90;;;;;;;;;;748199;182;919928;-56
2022/09/16 12:35:47;;;;;;;6.40;3.30;;;;;;;;;;754501;184;917188;-56
2022/09/16 12:38:15;;;;;;;4.90;4.20;;;;;;;;;;758622;183;919675;-55
2022/09/16 12:40:40;;;;;;;5.03;3.90;;;;;;;;;;752737;185;919353;-55
2022/09/16 12:43:06;;;;;;;6.63;4.27;;;;;;;;;;753842;184;919489;-56
2022/09/16 12:45:44;;;;;;;6.33;4.40;;;;;;;;;;754955;185;919034;-55
2022/09/16 12:48:12;;;;;;;8.97;4.50;;;;;;;;;;763116;184;919020;-55
2022/09/16 12:50:49;;;;;;;5.60;3.60;;;;;;;;;;749734;185;917575;-56
2022/09/16 12:53:30;;;;;;;6.67;3.50;;;;;;;;;;753510;184;900710;-56
2022/09/16 12:55:57;;;;;;;6.80;3.90;;;;;;;;;;752551;183;843065;-56
2022/09/16 12:58:23;;;;;;;3.83;3.30;;;;;;;;;;749196;184;947305;-56
2022/09/16 13:00:57;;;;;;;5.20;3.37;;;;;;;;;;759280;184;919695;-55
2022/09/16 13:03:23;;;;;;;5.30;2.73;;;;;;;;;;758731;184;919175;-56
2022/09/16 13:05:49;;;;;;;8.10;4.13;;;;;;;;;;751941;184;914743;-54
2022/09/16 13:08:20;;;;;;;7.50;3.83;;;;;;;;;;747751;184;918566;-57
2022/09/16 13:10:46;;;;;;;6.03;3.17;;;;;;;;;;759730;184;919764;-55
2022/09/16 13:13:15;;;;;;;6.77;3.60;;;;;;;;;;747472;183;919326;-56
2022/09/16 13:15:41;;;;;;;8.97;4.10;;;;;;;;;;748207;184;816120;-57
2022/09/16 13:18:09;;;;;;;8.63;3.60;;;;;;;;;;747974;185;916504;-56
2022/09/16 13:20:38;;;;;;;8.80;3.87;;;;;;;;;;753145;182;918823;-56
2022/09/16 13:23:07;;;;;;;7.77;3.87;;;;;;;;;;752953;184;918184;-57
2022/09/16 13:25:32;;;;;;;6.23;4.07;;;;;;;;;;754773;184;818522;-55
2022/09/16 13:28:00;;;;;;;7.15;3.80;;;;;;;;;;754767;184;922248;-57
2022/09/16 13:30:28;;;;;;;7.57;3.93;;;;;;;;;;758289;182;919670;-56
2022/09/16 13:32:57;;;;;;;4.90;4.40;;;;;;;;;;748919;185;816983;-56
2022/09/16 13:35:23;;;;;;;5.97;3.83;;;;;;;;;;748307;182;916715;-57
2022/09/16 13:37:50;;;;;;;13.43;4.70;;;;;;;;;;758461;184;918865;-56
2022/09/16 13:40:17;;;;;;;6.07;3.77;;;;;;;;;;751002;184;918612;-56
2022/09/16 13:42:43;;;;;;;6.47;3.50;;;;;;;;;;756639;182;919925;-57
2022/09/16 13:45:15;;;;;;;14.37;3.80;;;;;;;;;;749614;185;915544;-56
2022/09/16 13:47:41;;;;;;;6.30;3.27;;;;;;;;;;755250;185;919974;-56
2022/09/16 13:50:10;;;;;;;6.93;4.10;;;;;;;;;;754199;184;918459;-56
2022/09/16 13:52:36;;;;;;;12.33;2.40;;;;;;;;;;748915;185;918690;-56
2022/09/16 13:55:02;;;;;;;6.07;2.90;;;;;;;;;;753802;181;922120;-56
2022/09/16 13:57:34;;;;;;;4.10;2.67;;;;;;;;;;756948;182;913896;-55
2022/09/16 14:00:20;;;;;;;5.23;2.60;;;;;;;;;;753378;184;813105;-56
2022/09/16 14:03:05;;;;;;;3.87;2.47;;;;;;;;;;753003;182;918057;-56
2022/09/16 14:05:36;;;;;;;5.40;2.83;;;;;;;;;;755109;182;914079;-56
2022/09/16 14:08:13;;;;;;;5.20;3.00;;;;;;;;;;754105;183;933666;-55
2022/09/16 14:10:45;;;;;;;3.27;2.10;;;;;;;;;;756596;182;817579;-55
2022/09/16 14:13:14;;;;;;;6.70;3.20;;;;;;;;;;754642;182;862142;-56
2022/09/16 14:15:39;;;;;;;5.97;2.30;;;;;;;;;;759922;184;817957;-56
2022/09/16 14:18:05;;;;;;;5.63;2.83;;;;;;;;;;751837;184;922005;-55
2022/09/16 14:20:31;;;;;;;4.20;2.23;;;;;;;;;;754640;184;916258;-56